createdAt,value
2017-06-10T00:00:14.902Z,0
2017-06-10T00:01:15.584Z,0
2017-06-10T00:02:16.572Z,0
2017-06-10T00:03:17.307Z,0
2017-06-10T00:04:17.998Z,0
2017-06-10T00:05:18.831Z,0
2017-06-10T00:06:19.514Z,0
2017-06-10T00:07:20.195Z,0
2017-06-10T00:08:21.176Z,0
2017-06-10T00:09:21.948Z,0
2017-06-10T00:10:22.609Z,0
2017-06-10T00:11:23.307Z,0
2017-06-10T00:12:24.011Z,0
2017-06-10T00:13:24.831Z,0
2017-06-10T00:14:25.769Z,0
2017-06-10T00:15:26.861Z,0
2017-06-10T00:16:27.523Z,0
2017-06-10T00:17:28.194Z,0
2017-06-10T00:18:28.927Z,0
2017-06-10T00:19:29.602Z,0
2017-06-10T00:20:30.555Z,0
2017-06-10T00:21:31.227Z,0
2017-06-10T00:22:31.953Z,0
2017-06-10T00:23:32.684Z,0
2017-06-10T00:24:33.371Z,0
2017-06-10T00:25:34.104Z,0
2017-06-10T00:26:35.033Z,0
2017-06-10T00:27:35.717Z,0
2017-06-10T00:28:36.445Z,0
2017-06-10T00:29:37.230Z,0
2017-06-10T00:30:37.890Z,0
2017-06-10T00:31:38.623Z,0
2017-06-10T00:32:39.608Z,0
2017-06-10T00:33:40.347Z,0
2017-06-10T00:34:41.030Z,0
2017-06-10T00:35:41.718Z,0
2017-06-10T00:36:42.394Z,0
2017-06-10T00:37:43.085Z,0
2017-06-10T00:38:44.067Z,0
2017-06-10T00:39:44.769Z,0
2017-06-10T00:40:45.838Z,0
2017-06-10T00:41:46.523Z,0
2017-06-10T00:42:47.214Z,0
2017-06-10T00:43:47.890Z,0
2017-06-10T00:44:48.871Z,0
2017-06-10T00:45:49.644Z,0
2017-06-10T00:46:50.336Z,0
2017-06-10T00:47:51.024Z,0
2017-06-10T00:48:51.704Z,0
2017-06-10T00:49:52.431Z,0
2017-06-10T00:50:53.611Z,0
2017-06-10T00:51:54.297Z,0
2017-06-10T00:52:55.008Z,0
2017-06-10T00:53:55.670Z,0
2017-06-10T00:54:56.488Z,0
2017-06-10T00:55:57.342Z,0
2017-06-10T00:56:58.335Z,0
2017-06-10T00:57:59.055Z,0
2017-06-10T00:58:59.738Z,0
2017-06-10T01:00:00.420Z,0
2017-06-10T01:01:01.150Z,0
2017-06-10T01:02:01.852Z,0
2017-06-10T01:03:02.825Z,0
2017-06-10T01:04:03.900Z,0
2017-06-10T01:05:05.231Z,0
2017-06-10T01:06:05.952Z,0
2017-06-10T01:07:06.700Z,0
2017-06-10T01:08:07.430Z,0
2017-06-10T01:09:08.360Z,0
2017-06-10T01:10:09.095Z,0
2017-06-10T01:11:09.768Z,0
2017-06-10T01:12:10.474Z,0
2017-06-10T01:13:11.379Z,0
2017-06-10T01:14:12.050Z,0
2017-06-10T01:15:13.032Z,0
2017-06-10T01:16:13.715Z,0
2017-06-10T01:17:14.393Z,0
2017-06-10T01:18:15.087Z,0
2017-06-10T01:19:15.861Z,0
2017-06-10T01:20:16.554Z,0
2017-06-10T01:21:17.476Z,0
2017-06-10T01:22:18.466Z,0
2017-06-10T01:23:19.155Z,0
2017-06-10T01:24:20.234Z,0
2017-06-10T01:25:20.917Z,0
2017-06-10T01:26:21.900Z,0
2017-06-10T01:27:22.845Z,0
2017-06-10T01:28:23.571Z,0
2017-06-10T01:29:24.456Z,0
2017-06-10T01:30:25.154Z,0
2017-06-10T01:31:25.820Z,0
2017-06-10T01:32:26.556Z,0
2017-06-10T01:33:27.492Z,0
2017-06-10T01:34:28.174Z,0
2017-06-10T01:35:28.923Z,0
2017-06-10T01:36:29.645Z,0
2017-06-10T01:37:30.328Z,0
2017-06-10T01:38:31.016Z,0
2017-06-10T01:39:31.948Z,0
2017-06-10T01:40:32.628Z,0
2017-06-10T01:41:33.305Z,0
2017-06-10T01:42:33.991Z,0
2017-06-10T01:43:34.674Z,0
2017-06-10T01:44:35.400Z,0
2017-06-10T01:45:36.335Z,0
2017-06-10T01:46:37.027Z,0
2017-06-10T01:47:37.705Z,0
2017-06-10T01:48:38.378Z,0
2017-06-10T01:49:39.117Z,0
2017-06-10T01:50:39.799Z,0
2017-06-10T01:51:40.727Z,0
2017-06-10T01:52:41.463Z,0
2017-06-10T01:53:42.149Z,0
2017-06-10T01:54:42.825Z,0
2017-06-10T01:55:43.558Z,0
2017-06-10T01:56:44.248Z,0
2017-06-10T01:57:45.269Z,0
2017-06-10T01:58:45.957Z,0
2017-06-10T01:59:46.646Z,0
2017-06-10T02:00:47.319Z,0
2017-06-10T02:01:47.994Z,0
2017-06-10T02:02:48.795Z,0
2017-06-10T02:03:49.485Z,0
2017-06-10T02:04:50.412Z,0
2017-06-10T02:05:51.093Z,0
2017-06-10T02:06:51.776Z,0
2017-06-10T02:07:52.566Z,0
2017-06-10T02:08:53.244Z,0
2017-06-10T02:09:53.928Z,0
2017-06-10T02:10:54.866Z,0
2017-06-10T02:11:55.535Z,0
2017-06-10T02:12:56.342Z,0
2017-06-10T02:13:57.068Z,0
2017-06-10T02:14:57.736Z,0
2017-06-10T02:15:58.417Z,0
2017-06-10T02:16:59.349Z,0
2017-06-10T02:18:00.492Z,0
2017-06-10T02:19:01.167Z,0
2017-06-10T02:20:01.857Z,0
2017-06-10T02:21:02.583Z,0
2017-06-10T02:22:03.261Z,0
2017-06-10T02:23:04.392Z,0
2017-06-10T02:24:05.082Z,0
2017-06-10T02:25:05.762Z,0
2017-06-10T02:26:06.451Z,0
2017-06-10T02:27:07.130Z,0
2017-06-10T02:28:07.857Z,0
2017-06-10T02:29:08.885Z,0
2017-06-10T02:30:09.562Z,0
2017-06-10T02:31:10.291Z,0
2017-06-10T02:32:10.980Z,0
2017-06-10T02:33:11.718Z,0
2017-06-10T02:34:12.389Z,0
2017-06-10T02:35:13.343Z,0
2017-06-10T02:36:14.011Z,0
2017-06-10T02:37:14.689Z,0
2017-06-10T02:38:15.532Z,0
2017-06-10T02:39:16.191Z,0
2017-06-10T02:40:16.880Z,0
2017-06-10T02:41:17.818Z,0
2017-06-10T02:42:18.494Z,0
2017-06-10T02:43:19.594Z,0
2017-06-10T02:44:20.251Z,0
2017-06-10T02:45:20.938Z,0
2017-06-10T02:46:21.658Z,0
2017-06-10T02:47:22.646Z,0
2017-06-10T02:48:23.392Z,0
2017-06-10T02:49:24.077Z,0
2017-06-10T02:50:24.753Z,0
2017-06-10T02:51:25.429Z,0
2017-06-10T02:52:26.098Z,0
2017-06-10T02:53:27.107Z,0
2017-06-10T02:54:27.757Z,0
2017-06-10T02:55:28.498Z,0
2017-06-10T02:56:29.185Z,0
2017-06-10T02:57:29.914Z,0
2017-06-10T02:58:30.616Z,0
2017-06-10T02:59:31.518Z,0
2017-06-10T03:00:32.265Z,0
2017-06-10T03:01:32.942Z,0
2017-06-10T03:02:33.633Z,0
2017-06-10T03:03:34.309Z,0
2017-06-10T03:04:34.989Z,0
2017-06-10T03:05:35.681Z,0
2017-06-10T03:06:36.614Z,0
2017-06-10T03:07:37.394Z,0
2017-06-10T03:08:38.382Z,0
2017-06-10T03:09:39.064Z,0
2017-06-10T03:10:39.798Z,0
2017-06-10T03:11:40.489Z,0
2017-06-10T03:12:41.460Z,0
2017-06-10T03:13:42.141Z,0
2017-06-10T03:14:42.831Z,0
2017-06-10T03:15:43.514Z,0
2017-06-10T03:16:44.197Z,0
2017-06-10T03:17:45.177Z,0
2017-06-10T03:18:45.911Z,0
2017-06-10T03:19:46.925Z,0
2017-06-10T03:20:47.596Z,0
2017-06-10T03:21:48.249Z,0
2017-06-10T03:22:49.038Z,0
2017-06-10T03:23:49.730Z,5
2017-06-10T03:24:50.478Z,5
2017-06-10T03:25:51.441Z,5
2017-06-10T03:26:52.123Z,5
2017-06-10T03:27:52.867Z,5
2017-06-10T03:28:53.550Z,5
2017-06-10T03:29:54.225Z,5
2017-06-10T03:30:54.913Z,5
2017-06-10T03:31:55.845Z,5
2017-06-10T03:32:56.623Z,5
2017-06-10T03:33:57.307Z,5
2017-06-10T03:34:57.995Z,5
2017-06-10T03:35:58.695Z,5
2017-06-10T03:36:59.380Z,10
2017-06-10T03:38:00.515Z,10
2017-06-10T03:39:01.199Z,10
2017-06-10T03:40:01.880Z,10
2017-06-10T03:41:02.564Z,10
2017-06-10T03:42:03.294Z,10
2017-06-10T03:43:03.981Z,10
2017-06-10T03:44:04.918Z,10
2017-06-10T03:45:05.595Z,10
2017-06-10T03:46:06.333Z,10
2017-06-10T03:47:07.023Z,10
2017-06-10T03:48:07.711Z,10
2017-06-10T03:49:08.392Z,15
2017-06-10T03:50:09.130Z,15
2017-06-10T03:51:10.105Z,15
2017-06-10T03:52:10.798Z,15
2017-06-10T03:53:11.476Z,15
2017-06-10T03:54:12.179Z,15
2017-06-10T03:55:13.169Z,15
2017-06-10T03:56:13.905Z,15
2017-06-10T03:57:14.884Z,15
2017-06-10T03:58:15.559Z,15
2017-06-10T03:59:16.286Z,15
2017-06-10T04:00:17.134Z,20
2017-06-10T04:01:17.864Z,20
2017-06-10T04:02:18.555Z,20
2017-06-10T04:03:19.532Z,20
2017-06-10T04:04:20.246Z,20
2017-06-10T04:05:20.892Z,20
2017-06-10T04:06:21.572Z,20
2017-06-10T04:07:22.271Z,20
2017-06-10T04:08:22.995Z,20
2017-06-10T04:09:24.028Z,20
2017-06-10T04:10:24.794Z,20
2017-06-10T04:11:25.446Z,20
2017-06-10T04:12:26.126Z,25
2017-06-10T04:13:26.827Z,25
2017-06-10T04:14:27.532Z,25
2017-06-10T04:15:28.518Z,25
2017-06-10T04:16:29.173Z,25
2017-06-10T04:17:29.862Z,25
2017-06-10T04:18:30.593Z,25
2017-06-10T04:19:31.280Z,25
2017-06-10T04:20:32.111Z,25
2017-06-10T04:21:32.800Z,25
2017-06-10T04:22:33.782Z,25
2017-06-10T04:23:34.513Z,25
2017-06-10T04:24:35.189Z,25
2017-06-10T04:25:36.327Z,25
2017-06-10T04:26:37.020Z,30
2017-06-10T04:27:37.697Z,30
2017-06-10T04:28:38.682Z,30
2017-06-10T04:29:39.368Z,30
2017-06-10T04:30:40.206Z,30
2017-06-10T04:31:40.885Z,30
2017-06-10T04:32:41.569Z,30
2017-06-10T04:33:42.250Z,30
2017-06-10T04:34:42.950Z,30
2017-06-10T04:35:43.981Z,30
2017-06-10T04:36:44.678Z,30
2017-06-10T04:37:45.353Z,30
2017-06-10T04:38:46.046Z,30
2017-06-10T04:39:46.727Z,30
2017-06-10T04:40:47.507Z,30
2017-06-10T04:41:48.443Z,30
2017-06-10T04:42:49.141Z,35
2017-06-10T04:43:49.813Z,35
2017-06-10T04:44:50.580Z,35
2017-06-10T04:45:51.316Z,35
2017-06-10T04:46:51.989Z,35
2017-06-10T04:47:53.020Z,35
2017-06-10T04:48:53.748Z,35
2017-06-10T04:49:54.499Z,35
2017-06-10T04:50:55.243Z,35
2017-06-10T04:51:55.909Z,35
2017-06-10T04:52:56.591Z,35
2017-06-10T04:53:57.536Z,35
2017-06-10T04:54:58.224Z,35
2017-06-10T04:55:59.055Z,35
2017-06-10T04:56:59.735Z,35
2017-06-10T04:58:00.433Z,35
2017-06-10T04:59:01.188Z,35
2017-06-10T05:00:02.142Z,35
2017-06-10T05:01:02.823Z,35
2017-06-10T05:02:03.507Z,35
2017-06-10T05:03:04.237Z,35
2017-06-10T05:04:04.983Z,35
2017-06-10T05:05:05.685Z,35
2017-06-10T05:06:06.393Z,40
2017-06-10T05:07:07.377Z,40
2017-06-10T05:08:08.065Z,40
2017-06-10T05:09:08.755Z,40
2017-06-10T05:10:09.746Z,40
2017-06-10T05:11:10.729Z,40
2017-06-10T05:12:11.468Z,40
2017-06-10T05:13:12.397Z,40
2017-06-10T05:14:13.125Z,40
2017-06-10T05:15:13.870Z,40
2017-06-10T05:16:14.560Z,40
2017-06-10T05:17:15.308Z,40
2017-06-10T05:18:15.998Z,40
2017-06-10T05:19:16.928Z,40
2017-06-10T05:20:17.605Z,40
2017-06-10T05:21:18.350Z,40
2017-06-10T05:22:19.126Z,40
2017-06-10T05:23:19.861Z,40
2017-06-10T05:24:20.546Z,40
2017-06-10T05:25:21.607Z,40
2017-06-10T05:26:22.819Z,40
2017-06-10T05:27:23.514Z,40
2017-06-10T05:28:24.197Z,40
2017-06-10T05:29:24.895Z,40
2017-06-10T05:30:25.572Z,40
2017-06-10T05:31:26.545Z,40
2017-06-10T05:32:27.292Z,40
2017-06-10T05:33:27.979Z,40
2017-06-10T05:34:28.667Z,40
2017-06-10T05:35:29.350Z,40
2017-06-10T05:36:30.359Z,40
2017-06-10T05:37:31.277Z,40
2017-06-10T05:38:31.977Z,40
2017-06-10T05:39:32.676Z,40
2017-06-10T05:40:33.381Z,40
2017-06-10T05:41:34.164Z,40
2017-06-10T05:42:34.871Z,40
2017-06-10T05:43:35.840Z,40
2017-06-10T05:44:36.594Z,40
2017-06-10T05:45:37.573Z,40
2017-06-10T05:46:38.327Z,40
2017-06-10T05:47:39.036Z,40
2017-06-10T05:48:39.790Z,40
2017-06-10T05:49:41.023Z,40
2017-06-10T05:50:41.758Z,40
2017-06-10T05:51:42.536Z,40
2017-06-10T05:52:43.228Z,40
2017-06-10T05:53:43.917Z,40
2017-06-10T05:54:44.600Z,40
2017-06-10T05:55:45.584Z,40
2017-06-10T05:56:46.342Z,40
2017-06-10T05:57:47.038Z,40
2017-06-10T05:58:47.719Z,40
2017-06-10T05:59:48.404Z,40
2017-06-10T06:00:49.076Z,40
2017-06-10T06:01:50.115Z,40
2017-06-10T06:02:50.801Z,40
2017-06-10T06:03:51.553Z,40
2017-06-10T06:04:52.280Z,40
2017-06-10T06:05:52.969Z,40
2017-06-10T06:06:53.700Z,40
2017-06-10T06:07:54.689Z,45
2017-06-10T06:08:55.451Z,45
2017-06-10T06:09:56.119Z,45
2017-06-10T06:10:56.809Z,45
2017-06-10T06:11:57.574Z,45
2017-06-10T06:12:58.295Z,40
2017-06-10T06:13:59.228Z,40
2017-06-10T06:14:59.920Z,45
2017-06-10T06:16:00.655Z,45
2017-06-10T06:17:01.358Z,45
2017-06-10T06:18:02.078Z,45
2017-06-10T06:19:02.779Z,45
2017-06-10T06:20:03.447Z,45
2017-06-10T06:21:04.435Z,45
2017-06-10T06:22:05.182Z,45
2017-06-10T06:23:05.886Z,45
2017-06-10T06:24:06.595Z,45
2017-06-10T06:25:07.271Z,45
2017-06-10T06:26:07.953Z,45
2017-06-10T06:27:09.197Z,45
2017-06-10T06:28:10.226Z,45
2017-06-10T06:29:10.932Z,45
2017-06-10T06:30:11.582Z,45
2017-06-10T06:31:12.330Z,45
2017-06-10T06:32:13.120Z,45
2017-06-10T06:33:14.090Z,45
2017-06-10T06:34:14.752Z,45
2017-06-10T06:35:15.443Z,45
2017-06-10T06:36:16.122Z,45
2017-06-10T06:37:16.916Z,45
2017-06-10T06:38:17.635Z,45
2017-06-10T06:39:18.628Z,45
2017-06-10T06:40:19.341Z,40
2017-06-10T06:41:20.011Z,40
2017-06-10T06:42:21.279Z,40
2017-06-10T06:43:25.455Z,40
2017-06-10T06:44:23.796Z,40
2017-06-10T06:45:26.411Z,40
2017-06-10T06:46:27.066Z,45
2017-06-10T06:47:27.880Z,45
2017-06-10T06:48:28.575Z,45
2017-06-10T06:49:29.239Z,45
2017-06-10T06:50:30.246Z,45
2017-06-10T06:51:31.256Z,45
2017-06-10T06:52:32.026Z,45
2017-06-10T06:53:32.726Z,45
2017-06-10T06:54:33.463Z,45
2017-06-10T06:55:34.449Z,45
2017-06-10T06:56:35.135Z,45
2017-06-10T06:57:36.192Z,45
2017-06-10T06:58:36.870Z,45
2017-06-10T06:59:37.561Z,45
2017-06-10T07:00:38.301Z,45
2017-06-10T07:01:39.092Z,45
2017-06-10T07:02:39.865Z,45
2017-06-10T07:03:40.898Z,45
2017-06-10T07:04:41.588Z,45
2017-06-10T07:05:42.909Z,45
2017-06-10T07:06:43.561Z,45
2017-06-10T07:07:44.357Z,45
2017-06-10T07:08:45.093Z,45
2017-06-10T07:09:46.572Z,45
2017-06-10T07:10:47.255Z,45
2017-06-10T07:11:47.930Z,45
2017-06-10T07:12:48.731Z,45
2017-06-10T07:13:49.456Z,45
2017-06-10T07:14:50.182Z,45
2017-06-10T07:15:51.120Z,45
2017-06-10T07:16:51.839Z,45
2017-06-10T07:17:52.548Z,45
2017-06-10T07:18:53.475Z,45
2017-06-10T07:19:55.626Z,45
2017-06-10T07:20:56.279Z,45
2017-06-10T07:21:57.242Z,45
2017-06-10T07:22:58.256Z,45
2017-06-10T07:23:59.861Z,45
2017-06-10T07:25:00.547Z,45
2017-06-10T07:26:01.207Z,45
2017-06-10T07:27:01.913Z,45
2017-06-10T07:28:03.013Z,45
2017-06-10T07:29:03.677Z,45
2017-06-10T07:30:04.425Z,45
2017-06-10T07:31:05.135Z,45
2017-06-10T07:32:05.830Z,45
2017-06-10T07:33:06.566Z,45
2017-06-10T07:34:07.540Z,45
2017-06-10T07:35:08.305Z,45
2017-06-10T07:36:09.015Z,45
2017-06-10T07:37:09.713Z,45
2017-06-10T07:38:10.396Z,45
2017-06-10T07:39:11.783Z,45
2017-06-10T07:40:12.766Z,45
2017-06-10T07:41:13.765Z,45
2017-06-10T07:42:14.538Z,45
2017-06-10T07:43:15.230Z,45
2017-06-10T07:44:15.933Z,45
2017-06-10T07:45:16.712Z,45
2017-06-10T07:46:17.928Z,45
2017-06-10T07:47:18.838Z,45
2017-06-10T07:48:19.710Z,45
2017-06-10T07:49:20.375Z,45
2017-06-10T07:50:21.363Z,45
2017-06-10T07:51:22.050Z,45
2017-06-10T07:52:22.759Z,45
2017-06-10T07:53:23.484Z,45
2017-06-10T07:54:25.293Z,45
2017-06-10T07:55:26.048Z,50
2017-06-10T07:56:26.746Z,50
2017-06-10T07:57:27.438Z,45
2017-06-10T07:58:28.172Z,45
2017-06-10T07:59:28.861Z,45
2017-06-10T08:00:29.987Z,45
2017-06-10T08:01:30.698Z,45
2017-06-10T08:02:31.483Z,45
2017-06-10T08:03:32.168Z,45
2017-06-10T08:04:32.900Z,45
2017-06-10T08:05:33.560Z,45
2017-06-10T08:06:34.243Z,45
2017-06-10T08:07:36.081Z,45
2017-06-10T08:08:36.740Z,45
2017-06-10T08:09:37.429Z,45
2017-06-10T08:10:38.374Z,45
2017-06-10T08:11:39.045Z,45
2017-06-10T08:12:39.783Z,45
2017-06-10T08:13:40.830Z,45
2017-06-10T08:14:41.503Z,45
2017-06-10T08:15:42.191Z,45
2017-06-10T08:16:42.902Z,45
2017-06-10T08:17:43.786Z,45
2017-06-10T08:18:44.469Z,45
2017-06-10T08:19:45.162Z,45
2017-06-10T08:20:46.225Z,45
2017-06-10T08:21:46.897Z,45
2017-06-10T08:22:47.638Z,45
2017-06-10T08:23:48.377Z,50
2017-06-10T08:24:49.074Z,45
2017-06-10T08:25:49.771Z,50
2017-06-10T08:26:50.706Z,50
2017-06-10T08:27:51.601Z,50
2017-06-10T08:28:52.314Z,50
2017-06-10T08:29:53.026Z,50
2017-06-10T08:30:53.769Z,50
2017-06-10T08:31:54.468Z,50
2017-06-10T08:32:55.449Z,50
2017-06-10T08:33:56.136Z,50
2017-06-10T08:34:56.845Z,50
2017-06-10T08:35:57.593Z,50
2017-06-10T08:36:58.248Z,50
2017-06-10T08:37:58.942Z,50
2017-06-10T08:38:59.879Z,50
2017-06-10T08:40:00.569Z,50
2017-06-10T08:41:01.330Z,50
2017-06-10T08:42:02.062Z,50
2017-06-10T08:43:02.809Z,50
2017-06-10T08:44:03.798Z,50
2017-06-10T08:45:04.495Z,50
2017-06-10T08:46:05.263Z,50
2017-06-10T08:47:05.936Z,50
2017-06-10T08:48:06.671Z,50
2017-06-10T08:49:07.378Z,50
2017-06-10T08:50:08.049Z,55
2017-06-10T08:51:08.995Z,55
2017-06-10T08:52:09.689Z,60
2017-06-10T08:53:10.497Z,60
2017-06-10T08:54:11.213Z,60
2017-06-10T08:55:11.910Z,65
2017-06-10T08:56:12.596Z,70
2017-06-10T08:57:13.542Z,80
2017-06-10T08:58:14.425Z,85
2017-06-10T08:59:15.142Z,95
2017-06-10T09:00:15.869Z,105
2017-06-10T09:01:16.611Z,115
2017-06-10T09:02:17.311Z,130
2017-06-10T09:03:18.343Z,140
2017-06-10T09:04:19.067Z,145
2017-06-10T09:05:19.787Z,140
2017-06-10T09:06:20.494Z,135
2017-06-10T09:07:21.249Z,130
2017-06-10T09:08:21.939Z,120
2017-06-10T09:09:23.200Z,115
2017-06-10T09:10:23.917Z,115
2017-06-10T09:11:24.655Z,115
2017-06-10T09:12:25.354Z,115
2017-06-10T09:13:26.250Z,105
2017-06-10T09:14:26.930Z,105
2017-06-10T09:15:27.871Z,95
2017-06-10T09:16:28.563Z,90
2017-06-10T09:17:29.268Z,90
2017-06-10T09:18:30.043Z,90
2017-06-10T09:19:30.715Z,100
2017-06-10T09:20:31.389Z,105
2017-06-10T09:21:32.433Z,120
2017-06-10T09:22:33.125Z,135
2017-06-10T09:23:33.970Z,155
2017-06-10T09:24:34.737Z,175
2017-06-10T09:25:35.405Z,185
2017-06-10T09:26:36.102Z,185
2017-06-10T09:27:37.104Z,185
2017-06-10T09:28:37.794Z,185
2017-06-10T09:29:38.482Z,185
2017-06-10T09:30:39.242Z,170
2017-06-10T09:31:40.089Z,165
2017-06-10T09:32:40.780Z,170
2017-06-10T09:33:41.721Z,165
2017-06-10T09:34:42.414Z,165
2017-06-10T09:35:43.108Z,160
2017-06-10T09:36:43.857Z,160
2017-06-10T09:37:44.570Z,155
2017-06-10T09:38:45.271Z,145
2017-06-10T09:39:46.222Z,130
2017-06-10T09:40:46.915Z,120
2017-06-10T09:41:47.706Z,115
2017-06-10T09:42:48.415Z,115
2017-06-10T09:43:49.131Z,115
2017-06-10T09:44:49.833Z,115
2017-06-10T09:45:50.774Z,110
2017-06-10T09:46:51.517Z,115
2017-06-10T09:47:52.212Z,120
2017-06-10T09:48:52.924Z,135
2017-06-10T09:49:53.664Z,150
2017-06-10T09:50:54.340Z,165
2017-06-10T09:51:55.391Z,165
2017-06-10T09:52:56.082Z,165
2017-06-10T09:53:56.762Z,170
2017-06-10T09:54:57.481Z,180
2017-06-10T09:55:58.161Z,180
2017-06-10T09:56:58.959Z,175
2017-06-10T09:57:59.965Z,175
2017-06-10T09:59:00.696Z,170
2017-06-10T10:00:01.393Z,170
2017-06-10T10:01:02.090Z,175
2017-06-10T10:02:02.780Z,175
2017-06-10T10:03:03.542Z,175
2017-06-10T10:04:04.549Z,165
2017-06-10T10:05:05.282Z,155
2017-06-10T10:06:06.027Z,145
2017-06-10T10:07:07.021Z,140
2017-06-10T10:08:07.730Z,125
2017-06-10T10:09:08.425Z,115
2017-06-10T10:10:09.366Z,115
2017-06-10T10:11:10.112Z,105
2017-06-10T10:12:10.924Z,100
2017-06-10T10:13:11.597Z,110
2017-06-10T10:14:12.303Z,120
2017-06-10T10:15:12.983Z,125
2017-06-10T10:16:13.920Z,150
2017-06-10T10:17:14.640Z,175
2017-06-10T10:18:15.358Z,185
2017-06-10T10:19:16.057Z,165
2017-06-10T10:20:16.801Z,145
2017-06-10T10:21:17.514Z,120
2017-06-10T10:22:18.439Z,100
2017-06-10T10:23:19.726Z,100
2017-06-10T10:24:20.418Z,100
2017-06-10T10:25:21.144Z,95
2017-06-10T10:26:21.874Z,95
2017-06-10T10:27:22.582Z,85
2017-06-10T10:28:23.551Z,80
2017-06-10T10:29:24.304Z,70
2017-06-10T10:30:25.195Z,65
2017-06-10T10:31:25.889Z,70
2017-06-10T10:32:26.586Z,70
2017-06-10T10:33:27.275Z,65
2017-06-10T10:34:28.124Z,65
2017-06-10T10:35:28.835Z,65
2017-06-10T10:36:29.582Z,65
2017-06-10T10:37:30.254Z,65
2017-06-10T10:38:30.963Z,65
2017-06-10T10:39:31.821Z,70
2017-06-10T10:40:32.872Z,75
2017-06-10T10:41:33.559Z,80
2017-06-10T10:42:34.306Z,85
2017-06-10T10:43:35.078Z,100
2017-06-10T10:44:35.904Z,105
2017-06-10T10:45:36.610Z,120
2017-06-10T10:46:37.292Z,125
2017-06-10T10:47:38.054Z,130
2017-06-10T10:48:38.739Z,125
2017-06-10T10:49:39.491Z,120
2017-06-10T10:50:40.198Z,120
2017-06-10T10:51:41.177Z,120
2017-06-10T10:52:41.877Z,125
2017-06-10T10:53:42.611Z,125
2017-06-10T10:54:43.314Z,120
2017-06-10T10:55:43.999Z,130
2017-06-10T10:56:44.789Z,135
2017-06-10T10:57:45.793Z,150
2017-06-10T10:58:46.488Z,165
2017-06-10T10:59:47.675Z,165
2017-06-10T11:00:48.370Z,160
2017-06-10T11:01:49.075Z,155
2017-06-10T11:02:49.833Z,140
2017-06-10T11:03:50.816Z,130
2017-06-10T11:04:51.654Z,120
2017-06-10T11:05:52.424Z,120
2017-06-10T11:06:53.096Z,130
2017-06-10T11:07:53.797Z,130
2017-06-10T11:08:54.494Z,115
2017-06-10T11:09:55.580Z,100
2017-06-10T11:10:56.274Z,95
2017-06-10T11:11:56.977Z,95
2017-06-10T11:12:57.659Z,100
2017-06-10T11:13:58.355Z,105
2017-06-10T11:14:59.146Z,100
2017-06-10T11:16:00.084Z,100
2017-06-10T11:17:00.781Z,95
2017-06-10T11:18:01.499Z,90
2017-06-10T11:19:02.224Z,85
2017-06-10T11:20:02.907Z,80
2017-06-10T11:21:03.607Z,80
2017-06-10T11:22:04.343Z,80
2017-06-10T11:23:05.026Z,80
2017-06-10T11:24:05.788Z,85
2017-06-10T11:25:06.471Z,85
2017-06-10T11:26:07.150Z,90
2017-06-10T11:27:08.098Z,95
2017-06-10T11:28:09.104Z,95
2017-06-10T11:29:09.793Z,100
2017-06-10T11:30:10.535Z,100
2017-06-10T11:31:11.246Z,105
2017-06-10T11:32:12.218Z,105
2017-06-10T11:33:12.911Z,100
2017-06-10T11:34:13.691Z,100
2017-06-10T11:35:14.651Z,100
2017-06-10T11:36:15.371Z,100
2017-06-10T11:37:16.065Z,105
2017-06-10T11:38:16.749Z,110
2017-06-10T11:39:17.442Z,115
2017-06-10T11:40:18.150Z,110
2017-06-10T11:41:19.135Z,115
2017-06-10T11:42:19.878Z,125
2017-06-10T11:43:20.570Z,140
2017-06-10T11:44:21.257Z,150
2017-06-10T11:45:21.976Z,160
2017-06-10T11:46:22.708Z,165
2017-06-10T11:47:23.832Z,165
2017-06-10T11:48:24.505Z,170
2017-06-10T11:49:25.193Z,170
2017-06-10T11:50:25.913Z,170
2017-06-10T11:51:26.600Z,170
2017-06-10T11:52:27.294Z,170
2017-06-10T11:53:28.319Z,175
2017-06-10T11:54:29.037Z,180
2017-06-10T11:55:30.084Z,185
2017-06-10T11:56:30.784Z,185
2017-06-10T11:57:31.621Z,195
2017-06-10T11:58:32.313Z,205
2017-06-10T11:59:33.257Z,215
2017-06-10T12:00:34.023Z,215
2017-06-10T12:01:34.733Z,210
2017-06-10T12:02:35.414Z,195
2017-06-10T12:03:36.169Z,185
2017-06-10T12:04:36.888Z,160
2017-06-10T12:05:37.885Z,140
2017-06-10T12:06:39.081Z,130
2017-06-10T12:07:39.781Z,125
2017-06-10T12:08:40.471Z,130
2017-06-10T12:09:41.213Z,130
2017-06-10T12:10:41.920Z,130
2017-06-10T12:11:42.762Z,130
2017-06-10T12:12:43.692Z,135
2017-06-10T12:13:44.386Z,140
2017-06-10T12:14:45.110Z,145
2017-06-10T12:15:45.796Z,145
2017-06-10T12:16:46.636Z,140
2017-06-10T12:17:47.324Z,135
2017-06-10T12:18:48.013Z,140
2017-06-10T12:19:48.971Z,145
2017-06-10T12:20:49.659Z,160
2017-06-10T12:21:50.472Z,170
2017-06-10T12:22:51.159Z,175
2017-06-10T12:23:51.859Z,185
2017-06-10T12:24:52.551Z,190
2017-06-10T12:25:53.501Z,200
2017-06-10T12:26:54.196Z,210
2017-06-10T12:27:55.191Z,225
2017-06-10T12:28:55.876Z,215
2017-06-10T12:29:56.628Z,205
2017-06-10T12:30:57.339Z,210
2017-06-10T12:31:58.363Z,205
2017-06-10T12:32:59.179Z,205
2017-06-10T12:34:00.241Z,215
2017-06-10T12:35:01.006Z,235
2017-06-10T12:36:01.699Z,265
2017-06-10T12:37:02.405Z,290
2017-06-10T12:38:03.391Z,290
2017-06-10T12:39:04.191Z,255
2017-06-10T12:40:04.905Z,245
2017-06-10T12:41:05.585Z,265
2017-06-10T12:42:06.289Z,300
2017-06-10T12:43:06.973Z,300
2017-06-10T12:44:07.979Z,275
2017-06-10T12:45:08.728Z,240
2017-06-10T12:46:09.417Z,225
2017-06-10T12:47:10.109Z,245
2017-06-10T12:48:10.806Z,240
2017-06-10T12:49:11.565Z,250
2017-06-10T12:50:12.502Z,270
2017-06-10T12:51:13.209Z,315
2017-06-10T12:52:14.191Z,340
2017-06-10T12:53:14.884Z,335
2017-06-10T12:54:15.759Z,320
2017-06-10T12:55:16.471Z,300
2017-06-10T12:56:17.515Z,270
2017-06-10T12:57:18.263Z,260
2017-06-10T12:58:19.015Z,280
2017-06-10T12:59:19.745Z,400
2017-06-10T13:00:20.708Z,450
2017-06-10T13:01:21.408Z,445
2017-06-10T13:02:22.099Z,405
2017-06-10T13:03:22.798Z,460
2017-06-10T13:04:23.538Z,515
2017-06-10T13:05:24.289Z,505
2017-06-10T13:06:25.067Z,520
2017-06-10T13:07:27.845Z,565
2017-06-10T13:08:30.212Z,600
2017-06-10T13:09:30.906Z,585
2017-06-10T13:10:31.912Z,675
2017-06-10T13:11:32.634Z,625
2017-06-10T13:12:33.377Z,500
2017-06-10T13:13:34.208Z,705
2017-06-10T13:14:34.879Z,715
2017-06-10T13:15:35.839Z,750
2017-06-10T13:16:36.652Z,740
2017-06-10T13:17:37.357Z,765
2017-06-10T13:18:38.993Z,810
2017-06-10T13:19:40.535Z,825
2017-06-10T13:20:41.197Z,850
2017-06-10T13:21:42.422Z,865
2017-06-10T13:22:43.154Z,845
2017-06-10T13:23:43.908Z,835
2017-06-10T13:24:44.666Z,840
2017-06-10T13:25:45.447Z,935
2017-06-10T13:26:46.649Z,925
2017-06-10T13:27:47.714Z,950
2017-06-10T13:28:48.435Z,1005
2017-06-10T13:29:49.431Z,1000
2017-06-10T13:30:50.858Z,985
2017-06-10T13:31:51.617Z,985
2017-06-10T13:32:52.313Z,1030
2017-06-10T13:33:53.329Z,1065
2017-06-10T13:34:54.053Z,990
2017-06-10T13:35:54.784Z,795
2017-06-10T13:36:55.703Z,945
2017-06-10T13:37:56.404Z,890
2017-06-10T13:38:57.087Z,650
2017-06-10T13:39:58.035Z,580
2017-06-10T13:40:58.755Z,560
2017-06-10T13:41:59.581Z,525
2017-06-10T13:43:00.334Z,865
2017-06-10T13:44:01.046Z,700
2017-06-10T13:45:01.757Z,550
2017-06-10T13:46:02.769Z,500
2017-06-10T13:47:03.738Z,560
2017-06-10T13:48:04.441Z,445
2017-06-10T13:49:05.415Z,600
2017-06-10T13:50:06.433Z,765
2017-06-10T13:51:07.192Z,1075
2017-06-10T13:52:07.899Z,1215
2017-06-10T13:53:08.862Z,1200
2017-06-10T13:54:09.618Z,1085
2017-06-10T13:55:10.301Z,960
2017-06-10T13:56:11.039Z,1235
2017-06-10T13:57:11.945Z,1235
2017-06-10T13:58:12.672Z,1205
2017-06-10T13:59:13.648Z,1150
2017-06-10T14:00:14.355Z,1090
2017-06-10T14:01:15.061Z,1130
2017-06-10T14:02:15.758Z,1155
2017-06-10T14:03:16.465Z,1145
2017-06-10T14:04:17.225Z,1145
2017-06-10T14:05:17.912Z,1180
2017-06-10T14:06:18.841Z,1200
2017-06-10T14:07:19.649Z,1120
2017-06-10T14:08:20.358Z,1115
2017-06-10T14:09:21.067Z,1140
2017-06-10T14:10:21.772Z,1145
2017-06-10T14:11:22.478Z,1125
2017-06-10T14:12:23.476Z,1125
2017-06-10T14:13:24.254Z,1155
2017-06-10T14:14:24.944Z,1125
2017-06-10T14:15:25.956Z,1155
2017-06-10T14:16:26.664Z,1235
2017-06-10T14:17:27.415Z,1180
2017-06-10T14:18:28.381Z,1165
2017-06-10T14:19:29.073Z,1170
2017-06-10T14:20:29.843Z,1125
2017-06-10T14:21:30.589Z,1125
2017-06-10T14:22:31.295Z,1205